Princess Anne, Maryland
Current Conditions -  °F | °C
As of 1:54 AM on Sunday 26 Oct 2014 (Local Time) from KSBY Reporting Station
Clear Clear  
Wind Chill: 59°   Ceiling: Unl
Heat Index: 59°   Visibility: 10mi
Dew Point: 49°   Wind: 8mph
Humidity: 69%   Direction: 240°WSW
Pressure: 29.68"   Gusts: NA
Location:  38.2°N, 75.69°W
Report Text: KSBY 260554Z AUTO 24007KT 10SM CLR 15/09 A2968 RMK AO2 SLP053 T01500094 10150 20128 58014
Loading
Personal Weather Stations






























Interactive Weather Map
Tropical Storm Tracking
New forecast layout! Learn more

10-Day Weather Forecast

Advertisements
Track Severe Weather on mobile